Time;durP1;ratioP1;P1;durP2;ratioP2;P2;SDS_P1;SDS_P2;PMS_P1;PMS_P2;Temp;Humidity;BMP_temperature;BMP_pressure;BME280_temperature;BME280_humidity;BME280_pressure;Samples;Min_cycle;Max_cycle;Signal;HPM_P1;HPM_P2
2023/03/18 00:01:24;;;;;;;40.77;13.07;;;0.80;99.90;;;;;;4428683;28;658718;-71
2023/03/18 00:04:11;;;;;;;38.37;12.57;;;0.80;99.90;;;;;;4412339;28;657531;-71
2023/03/18 00:06:58;;;;;;;44.30;13.73;;;0.90;99.90;;;;;;4440289;28;658243;-71
2023/03/18 00:09:46;;;;;;;39.53;12.60;;;0.90;99.90;;;;;;4419241;28;657544;-72
2023/03/18 00:12:35;;;;;;;41.73;13.43;;;0.90;99.90;;;;;;4438291;28;658801;-71
2023/03/18 00:15:22;;;;;;;45.43;16.07;;;0.90;99.90;;;;;;4410686;28;658971;-71
2023/03/18 00:18:09;;;;;;;50.00;16.03;;;0.90;99.90;;;;;;4433898;28;657866;-71
2023/03/18 00:20:57;;;;;;;40.08;14.30;;;1.00;99.90;;;;;;4420372;28;658091;-71
2023/03/18 00:23:45;;;;;;;40.50;13.48;;;0.90;99.90;;;;;;4436080;28;657528;-71
2023/03/18 00:26:32;;;;;;;32.73;12.10;;;1.00;99.90;;;;;;4406933;28;658850;-71
2023/03/18 00:29:22;;;;;;;34.63;11.87;;;1.00;99.90;;;;;;4441420;28;657117;-71
2023/03/18 00:32:09;;;;;;;41.97;14.47;;;1.00;99.90;;;;;;4410265;28;658227;-70
2023/03/18 00:34:57;;;;;;;42.80;15.90;;;1.00;99.90;;;;;;4410716;28;658050;-71
2023/03/18 00:37:45;;;;;;;54.77;18.10;;;1.00;99.90;;;;;;4438563;28;658030;-72
2023/03/18 00:40:51;;;;;;;43.27;14.63;;;1.00;99.90;;;;;;4407070;28;658324;-71
2023/03/18 00:43:44;;;;;;;40.43;14.90;;;0.90;99.90;;;;;;4416911;28;657840;-71
2023/03/18 00:46:36;;;;;;;51.80;16.97;;;0.90;99.90;;;;;;4404914;28;657586;-71
2023/03/18 00:49:23;;;;;;;46.00;16.93;;;0.90;99.90;;;;;;4420300;28;658584;-72
2023/03/18 00:52:11;;;;;;;59.37;21.00;;;0.90;99.90;;;;;;4418129;28;658543;-71
2023/03/18 00:54:58;;;;;;;51.53;20.07;;;0.80;99.90;;;;;;4446806;28;657444;-71
2023/03/18 00:57:46;;;;;;;44.63;16.00;;;0.80;99.90;;;;;;4420940;28;658239;-72
2023/03/18 01:00:34;;;;;;;55.20;17.87;;;0.80;99.90;;;;;;4437825;28;658560;-71
2023/03/18 01:03:25;;;;;;;48.50;18.00;;;0.80;99.90;;;;;;4419476;28;657798;-71
2023/03/18 01:06:13;;;;;;;30.97;11.63;;;0.80;99.90;;;;;;4416163;28;658223;-71
2023/03/18 01:09:01;;;;;;;33.23;12.27;;;0.80;99.90;;;;;;4411815;28;658089;-72
2023/03/18 01:11:48;;;;;;;39.13;12.93;;;0.80;99.90;;;;;;4441117;28;658776;-71
2023/03/18 01:14:36;;;;;;;39.87;14.50;;;0.80;99.90;;;;;;4417814;28;659454;-71
2023/03/18 01:17:24;;;;;;;60.30;22.77;;;0.80;99.90;;;;;;4437221;28;658288;-71
2023/03/18 01:20:15;;;;;;;117.63;41.83;;;0.90;99.90;;;;;;4410033;28;657641;-71
2023/03/18 01:23:03;;;;;;;60.27;21.67;;;0.90;99.90;;;;;;4420683;28;659035;-71
2023/03/18 01:25:50;;;;;;;46.53;18.40;;;0.80;99.90;;;;;;4425445;28;657916;-71
2023/03/18 01:28:38;;;;;;;68.73;23.97;;;0.80;99.90;;;;;;4438077;28;658973;-72
2023/03/18 01:31:25;;;;;;;53.30;22.23;;;0.70;99.90;;;;;;4414088;28;657903;-72
2023/03/18 01:34:13;;;;;;;50.57;19.87;;;0.60;99.90;;;;;;4435431;28;658290;-70
2023/03/18 01:37:02;;;;;;;34.13;13.13;;;0.50;99.90;;;;;;4430888;28;658130;-72
2023/03/18 01:39:49;;;;;;;29.23;10.90;;;0.40;99.90;;;;;;4439488;28;658684;-71
2023/03/18 01:42:36;;;;;;;34.03;12.23;;;0.40;99.90;;;;;;4414188;28;658201;-71
2023/03/18 01:45:25;;;;;;;29.03;11.37;;;0.40;99.90;;;;;;4437121;28;658458;-71
2023/03/18 01:48:14;;;;;;;33.35;11.77;;;0.40;99.90;;;;;;4415461;28;658450;-71
2023/03/18 01:51:04;;;;;;;33.80;11.23;;;0.40;99.90;;;;;;4405377;28;658426;-72
2023/03/18 01:53:52;;;;;;;28.17;10.73;;;0.40;99.90;;;;;;4411441;28;658168;-71
2023/03/18 01:56:41;;;;;;;27.17;10.47;;;0.40;99.90;;;;;;4420788;28;657433;-71
2023/03/18 01:59:29;;;;;;;28.27;10.93;;;0.50;99.90;;;;;;4431720;28;658641;-71
2023/03/18 02:02:16;;;;;;;25.25;10.20;;;0.50;99.90;;;;;;4416768;28;657330;-71
2023/03/18 02:05:05;;;;;;;49.70;18.27;;;0.50;99.90;;;;;;4443249;28;657836;-71
2023/03/18 02:07:53;;;;;;;142.20;45.03;;;0.50;99.90;;;;;;4407611;28;659130;-71
2023/03/18 02:10:42;;;;;;;138.40;47.03;;;0.50;99.90;;;;;;4428558;28;658685;-72
2023/03/18 02:13:30;;;;;;;76.30;28.87;;;0.50;99.90;;;;;;4430381;28;658622;-71
2023/03/18 02:16:21;;;;;;;97.83;32.67;;;0.50;99.90;;;;;;4417331;28;658564;-71
2023/03/18 02:19:22;;;;;;;59.10;22.90;;;0.40;99.90;;;;;;4414296;28;658512;-70
2023/03/18 02:22:15;;;;;;;54.33;20.07;;;0.50;99.90;;;;;;4415249;28;657507;-70
2023/03/18 02:25:16;;;;;;;30.23;13.60;;;0.40;99.90;;;;;;4414882;28;658964;-71
2023/03/18 02:28:08;;;;;;;35.20;13.10;;;0.40;99.90;;;;;;4417509;28;658392;-71
2023/03/18 02:30:57;;;;;;;32.23;12.47;;;0.30;99.90;;;;;;4388098;28;657415;-71
2023/03/18 02:33:44;;;;;;;30.70;11.60;;;0.30;99.90;;;;;;4426419;28;657292;-70
2023/03/18 02:36:31;;;;;;;56.10;18.03;;;0.30;99.90;;;;;;4417211;28;657081;-71
2023/03/18 02:39:19;;;;;;;64.97;20.27;;;0.20;99.90;;;;;;4435183;28;657810;-71
2023/03/18 02:42:06;;;;;;;85.13;26.27;;;0.20;99.90;;;;;;4415796;28;658636;-71
2023/03/18 02:44:55;;;;;;;70.25;25.30;;;0.20;99.90;;;;;;4439766;28;658400;-70
2023/03/18 02:47:42;;;;;;;49.10;18.93;;;0.20;99.90;;;;;;4412317;28;658444;-71
2023/03/18 02:50:30;;;;;;;82.40;26.50;;;0.20;99.90;;;;;;4432445;28;657520;-70
2023/03/18 02:53:17;;;;;;;97.70;31.23;;;0.20;99.90;;;;;;4415163;28;658630;-70
2023/03/18 02:56:05;;;;;;;70.87;22.87;;;0.20;99.90;;;;;;4435005;28;657392;-70
2023/03/18 02:58:53;;;;;;;73.20;25.47;;;0.10;99.90;;;;;;4417650;28;658776;-71
2023/03/18 03:01:42;;;;;;;39.33;15.47;;;0.10;99.90;;;;;;4425633;28;657582;-71
2023/03/18 03:04:30;;;;;;;24.23;10.77;;;0.10;99.90;;;;;;4435943;28;657240;-71
2023/03/18 03:07:18;;;;;;;30.17;12.13;;;0.10;99.90;;;;;;4432354;28;658818;-71
2023/03/18 03:10:06;;;;;;;23.30;9.40;;;0.20;99.90;;;;;;4426320;28;657306;-71
2023/03/18 03:12:54;;;;;;;24.67;8.87;;;0.20;99.90;;;;;;4435075;28;656655;-70
2023/03/18 03:15:41;;;;;;;22.73;8.47;;;0.20;99.90;;;;;;4415687;28;656548;-72
2023/03/18 03:18:30;;;;;;;24.47;8.97;;;0.20;99.90;;;;;;4428627;28;656755;-71
2023/03/18 03:21:17;;;;;;;20.60;8.03;;;0.20;99.90;;;;;;4407664;28;657224;-71
2023/03/18 03:24:05;;;;;;;23.97;8.83;;;0.20;99.90;;;;;;4434436;28;655718;-70
2023/03/18 03:26:52;;;;;;;31.50;11.07;;;0.20;99.90;;;;;;4419097;28;657134;-71
2023/03/18 03:29:40;;;;;;;280.57;49.07;;;0.20;99.90;;;;;;4435363;28;657506;-71
2023/03/18 03:32:27;;;;;;;257.57;47.53;;;0.20;99.90;;;;;;4441331;28;659244;-70
2023/03/18 03:35:17;;;;;;;125.10;25.60;;;0.10;99.90;;;;;;4422845;28;660923;-71
2023/03/18 03:38:04;;;;;;;61.37;16.13;;;0.10;99.90;;;;;;4442138;28;659052;-70
2023/03/18 03:40:52;;;;;;;39.80;11.50;;;0.00;99.90;;;;;;4416811;28;658157;-71
2023/03/18 03:43:40;;;;;;;31.63;10.73;;;0.00;99.90;;;;;;4433020;28;657878;-71
2023/03/18 03:46:27;;;;;;;31.50;10.50;;;-0.10;99.90;;;;;;4410269;28;658649;-70
2023/03/18 03:49:14;;;;;;;32.20;9.95;;;-0.10;99.90;;;;;;4437940;28;659332;-70
2023/03/18 03:52:03;;;;;;;42.73;11.87;;;-0.10;99.90;;;;;;4416735;28;658134;-71
2023/03/18 03:54:50;;;;;;;27.27;9.43;;;-0.20;99.90;;;;;;4412878;28;658733;-71
2023/03/18 03:57:38;;;;;;;29.07;10.10;;;-0.20;99.90;;;;;;4436475;28;659059;-71
2023/03/18 04:00:26;;;;;;;35.90;11.80;;;-0.20;99.90;;;;;;4404034;28;658714;-71
2023/03/18 04:03:13;;;;;;;32.70;13.37;;;-0.30;99.90;;;;;;4438959;28;659994;-70
2023/03/18 04:06:00;;;;;;;37.50;12.77;;;-0.30;99.90;;;;;;4404483;28;658354;-69
2023/03/18 04:08:49;;;;;;;26.50;10.47;;;-0.30;99.90;;;;;;4441496;28;659607;-70
2023/03/18 04:11:37;;;;;;;36.20;11.97;;;-0.40;99.90;;;;;;4417936;28;658642;-70
2023/03/18 04:14:24;;;;;;;29.90;10.17;;;-0.40;99.90;;;;;;4436255;28;658705;-70
2023/03/18 04:17:11;;;;;;;26.83;10.60;;;-0.50;99.90;;;;;;4416485;28;658730;-70
2023/03/18 04:19:58;;;;;;;24.83;9.97;;;-0.60;99.90;;;;;;4439323;28;659042;-70
2023/03/18 04:22:46;;;;;;;27.50;10.50;;;-0.70;99.90;;;;;;4420141;28;657600;-70
2023/03/18 04:25:35;;;;;;;29.03;9.17;;;-0.70;99.90;;;;;;4441230;28;659215;-69
2023/03/18 04:28:22;;;;;;;24.00;8.50;;;-0.80;99.90;;;;;;4414369;28;659433;-70
2023/03/18 04:31:09;;;;;;;25.23;8.88;;;-0.80;99.90;;;;;;4441779;28;657595;-70
2023/03/18 04:33:58;;;;;;;24.30;9.07;;;-0.90;99.90;;;;;;4421269;28;657762;-70
2023/03/18 04:36:46;;;;;;;23.17;8.73;;;-1.00;99.90;;;;;;4415774;28;658058;-71
2023/03/18 04:39:33;;;;;;;22.57;9.23;;;-1.10;99.90;;;;;;4443153;28;657766;-70
2023/03/18 04:42:22;;;;;;;23.77;9.07;;;-1.10;99.90;;;;;;4418857;28;658017;-71
2023/03/18 04:45:11;;;;;;;27.20;10.27;;;-1.10;99.90;;;;;;4427551;28;657792;-70
2023/03/18 04:47:58;;;;;;;40.70;15.30;;;-1.20;99.90;;;;;;4414497;28;658787;-70
2023/03/18 04:50:45;;;;;;;46.97;16.08;;;-1.20;99.90;;;;;;4412932;28;658934;-71
2023/03/18 04:53:32;;;;;;;42.63;15.27;;;-1.20;99.90;;;;;;4436473;28;660017;-70
2023/03/18 04:56:20;;;;;;;42.30;16.83;;;-1.20;99.90;;;;;;4434273;28;658558;-70
2023/03/18 04:59:09;;;;;;;41.33;15.17;;;-1.20;99.90;;;;;;4440066;28;659987;-70
2023/03/18 05:01:56;;;;;;;41.23;15.80;;;-1.20;99.90;;;;;;4421515;28;658637;-70
2023/03/18 05:04:44;;;;;;;76.77;24.67;;;-1.20;99.90;;;;;;4431722;28;659559;-70
2023/03/18 05:07:32;;;;;;;245.97;51.63;;;-1.20;99.90;;;;;;4403803;28;658653;-70
2023/03/18 05:10:19;;;;;;;190.80;44.30;;;-1.20;99.90;;;;;;4423906;28;659593;-70
2023/03/18 05:13:07;;;;;;;146.47;33.87;;;-1.10;99.90;;;;;;4403240;28;660579;-70
2023/03/18 05:15:56;;;;;;;97.00;25.97;;;-1.10;99.90;;;;;;4435210;28;659906;-70
2023/03/18 05:18:43;;;;;;;33.53;12.23;;;-1.00;99.90;;;;;;4410773;28;659009;-71
2023/03/18 05:21:30;;;;;;;34.60;11.77;;;-0.90;99.90;;;;;;4415220;28;659368;-71
2023/03/18 05:24:18;;;;;;;43.70;13.20;;;-0.80;99.90;;;;;;4436207;28;659000;-69
2023/03/18 05:27:05;;;;;;;40.47;11.70;;;-0.60;99.90;;;;;;4428423;28;658859;-70
2023/03/18 05:29:52;;;;;;;36.43;12.27;;;-0.50;99.90;;;;;;4439793;28;660127;-70
2023/03/18 05:32:42;;;;;;;29.70;10.53;;;-0.40;99.90;;;;;;4425398;28;659078;-71
2023/03/18 05:35:29;;;;;;;27.20;10.37;;;-0.40;99.90;;;;;;4440016;28;659138;-70
2023/03/18 05:38:17;;;;;;;41.33;14.97;;;-0.30;99.90;;;;;;4418767;28;659289;-70
2023/03/18 05:41:05;;;;;;;64.13;21.00;;;-0.20;99.90;;;;;;4432769;28;659127;-70
2023/03/18 05:43:52;;;;;;;50.90;17.50;;;-0.10;99.90;;;;;;4409497;28;659798;-70
2023/03/18 05:46:39;;;;;;;35.10;11.40;;;0.10;99.90;;;;;;4422017;28;658706;-70
2023/03/18 05:49:28;;;;;;;31.30;12.47;;;0.20;99.90;;;;;;4401974;28;657387;-71
2023/03/18 05:52:16;;;;;;;44.27;14.83;;;0.40;99.90;;;;;;4396624;28;657741;-71
2023/03/18 05:55:03;;;;;;;26.20;10.27;;;0.50;99.90;;;;;;4412598;28;658727;-70
2023/03/18 05:57:51;;;;;;;29.10;10.97;;;0.70;99.90;;;;;;4404497;28;657429;-71
2023/03/18 06:00:39;;;;;;;33.77;10.27;;;0.90;99.90;;;;;;4410718;28;658147;-71
2023/03/18 06:03:26;;;;;;;30.33;10.73;;;1.10;99.90;;;;;;4403110;28;658065;-71
2023/03/18 06:06:15;;;;;;;29.90;10.20;;;1.30;99.90;;;;;;4413343;28;657857;-70
2023/03/18 06:09:02;;;;;;;21.73;8.47;;;1.50;99.90;;;;;;4392307;28;658153;-71
2023/03/18 06:11:50;;;;;;;26.97;9.70;;;1.70;99.90;;;;;;4419329;28;656560;-71
2023/03/18 06:14:38;;;;;;;21.07;8.30;;;1.90;99.90;;;;;;4416635;28;656769;-70
2023/03/18 06:17:26;;;;;;;27.40;10.73;;;2.10;99.90;;;;;;4400534;28;656818;-71
2023/03/18 06:20:14;;;;;;;29.67;10.00;;;2.30;99.90;;;;;;4422973;28;658428;-71
2023/03/18 06:23:04;;;;;;;33.03;11.10;;;2.50;99.90;;;;;;4392424;28;657668;-70
2023/03/18 06:25:51;;;;;;;27.50;10.40;;;2.80;99.90;;;;;;4388636;28;657922;-70
2023/03/18 06:28:38;;;;;;;27.67;10.53;;;3.00;99.90;;;;;;4421235;28;659296;-70
2023/03/18 06:31:26;;;;;;;27.53;9.87;;;3.10;99.90;;;;;;4401075;28;657307;-71
2023/03/18 06:34:13;;;;;;;30.07;10.57;;;3.30;99.90;;;;;;4421489;28;657059;-70
2023/03/18 06:37:01;;;;;;;35.13;12.07;;;3.50;99.90;;;;;;4388953;28;657826;-71
2023/03/18 06:39:49;;;;;;;32.77;10.60;;;3.70;99.90;;;;;;4420550;28;657900;-71
2023/03/18 06:42:36;;;;;;;28.17;9.70;;;3.90;99.90;;;;;;4382822;28;657526;-70
2023/03/18 06:45:24;;;;;;;23.07;9.40;;;4.00;99.90;;;;;;4407039;28;656726;-70
2023/03/18 06:48:12;;;;;;;24.88;8.63;;;4.30;99.90;;;;;;4416981;28;656592;-70
2023/03/18 06:50:59;;;;;;;21.70;7.53;;;4.40;99.90;;;;;;4440711;28;656484;-71
2023/03/18 06:53:46;;;;;;;20.50;8.50;;;4.60;99.90;;;;;;4415237;28;656372;-70
2023/03/18 06:56:37;;;;;;;26.93;10.10;;;4.80;99.90;;;;;;4434786;28;656658;-71
2023/03/18 06:59:24;;;;;;;26.67;10.70;;;4.90;99.90;;;;;;4411959;28;657261;-70
2023/03/18 07:02:12;;;;;;;30.40;11.50;;;5.00;99.90;;;;;;4416371;28;658029;-70
2023/03/18 07:05:00;;;;;;;25.70;9.73;;;5.20;99.90;;;;;;4440201;28;657668;-71
2023/03/18 07:07:49;;;;;;;26.10;9.77;;;5.30;99.90;;;;;;4415982;28;657309;-71
2023/03/18 07:10:36;;;;;;;21.43;9.43;;;5.50;99.90;;;;;;4416698;28;656642;-71
2023/03/18 07:13:25;;;;;;;24.53;9.43;;;5.60;99.90;;;;;;4438449;28;656932;-71
2023/03/18 07:16:12;;;;;;;22.23;9.67;;;5.80;99.90;;;;;;4418833;28;656603;-70
2023/03/18 07:19:01;;;;;;;21.87;9.10;;;6.00;99.90;;;;;;4435001;28;659141;-71
2023/03/18 07:21:48;;;;;;;21.23;7.87;;;6.10;99.90;;;;;;4440140;28;657426;-71
2023/03/18 07:24:36;;;;;;;19.53;7.83;;;6.40;99.90;;;;;;4420868;28;656955;-71
2023/03/18 07:27:23;;;;;;;20.03;7.93;;;6.60;99.90;;;;;;4424486;28;658212;-71
2023/03/18 07:30:13;;;;;;;17.67;7.30;;;6.90;99.90;;;;;;4408677;28;656801;-72
2023/03/18 07:33:01;;;;;;;22.13;9.20;;;7.10;99.90;;;;;;4412620;28;656641;-72
2023/03/18 07:35:48;;;;;;;21.73;8.90;;;7.40;99.90;;;;;;4440092;28;656985;-71
2023/03/18 07:38:36;;;;;;;20.43;8.20;;;7.60;99.90;;;;;;4420194;28;656930;-71
2023/03/18 07:41:23;;;;;;;24.00;7.90;;;7.60;99.90;;;;;;4447107;28;656951;-72
2023/03/18 07:44:10;;;;;;;20.90;8.23;;;7.70;99.90;;;;;;4433732;28;656390;-72
2023/03/18 07:46:59;;;;;;;18.47;7.90;;;7.80;99.90;;;;;;4443088;28;658299;-71
2023/03/18 07:49:46;;;;;;;14.53;7.10;;;8.00;99.90;;;;;;4408303;28;656314;-72
2023/03/18 07:52:34;;;;;;;17.10;6.63;;;8.30;99.90;;;;;;4442647;28;657350;-71
2023/03/18 07:55:21;;;;;;;14.67;6.73;;;8.50;99.90;;;;;;4423688;28;656501;-71
2023/03/18 07:58:08;;;;;;;14.60;6.60;;;8.60;99.90;;;;;;4434633;28;657707;-71
2023/03/18 08:00:56;;;;;;;14.97;6.77;;;8.80;99.90;;;;;;4415655;28;657114;-72
2023/03/18 08:03:45;;;;;;;19.70;7.20;;;8.90;99.90;;;;;;4444381;28;657315;-73
2023/03/18 08:06:33;;;;;;;16.53;7.07;;;9.20;99.90;;;;;;4408905;28;657444;-72
2023/03/18 08:09:21;;;;;;;15.63;7.10;;;9.30;99.90;;;;;;4420622;28;656931;-73
2023/03/18 08:12:09;;;;;;;17.20;7.40;;;9.10;99.90;;;;;;4433567;28;657286;-71
2023/03/18 08:14:56;;;;;;;13.53;6.60;;;9.40;99.90;;;;;;4421329;28;657479;-71
2023/03/18 08:17:44;;;;;;;13.73;5.77;;;9.60;99.90;;;;;;4440953;28;656817;-73
2023/03/18 08:20:33;;;;;;;12.68;5.80;;;9.70;99.90;;;;;;4416248;28;656570;-72
2023/03/18 08:23:20;;;;;;;18.23;8.07;;;9.80;99.90;;;;;;4415342;28;657017;-73
2023/03/18 08:26:08;;;;;;;14.67;6.13;;;10.20;99.90;;;;;;4441387;28;657064;-72
2023/03/18 08:28:55;;;;;;;14.33;5.83;;;10.50;99.90;;;;;;4422715;28;657749;-74
2023/03/18 08:31:42;;;;;;;13.93;6.43;;;10.40;99.90;;;;;;4430272;28;659122;-73
2023/03/18 08:34:30;;;;;;;19.23;7.27;;;10.00;99.90;;;;;;4439479;28;657462;-72
2023/03/18 08:37:19;;;;;;;12.10;5.50;;;10.50;99.90;;;;;;4449614;28;657574;-73
2023/03/18 08:40:08;;;;;;;12.80;5.73;;;10.70;99.90;;;;;;4423759;28;657229;-71
2023/03/18 08:42:56;;;;;;;13.53;5.47;;;10.60;99.90;;;;;;4404384;28;657908;-72
2023/03/18 08:45:44;;;;;;;16.83;5.80;;;10.60;99.90;;;;;;4444966;28;658447;-72
2023/03/18 08:48:32;;;;;;;11.20;4.93;;;10.70;99.90;;;;;;4410727;28;658239;-72
2023/03/18 08:51:19;;;;;;;10.90;5.20;;;10.90;99.90;;;;;;4438996;28;657369;-72
2023/03/18 08:54:08;;;;;;;10.97;5.07;;;11.10;99.90;;;;;;4402626;28;657745;-72
2023/03/18 08:56:56;;;;;;;10.70;5.23;;;10.90;99.90;;;;;;4424776;28;658082;-72
2023/03/18 08:59:43;;;;;;;12.70;5.13;;;10.90;99.90;;;;;;4440411;28;658209;-72
2023/03/18 09:02:30;;;;;;;13.50;5.57;;;11.20;99.90;;;;;;4422071;28;657856;-72
2023/03/18 09:05:17;;;;;;;8.77;4.87;;;11.20;99.90;;;;;;4440703;28;657810;-72
2023/03/18 09:08:06;;;;;;;10.00;4.70;;;11.30;99.90;;;;;;4433688;28;656532;-73
2023/03/18 09:10:55;;;;;;;13.73;5.70;;;11.30;99.90;;;;;;4438785;28;658436;-72
2023/03/18 09:13:42;;;;;;;9.43;5.57;;;11.80;99.90;;;;;;4414761;28;658515;-72
2023/03/18 09:16:29;;;;;;;12.83;5.47;;;11.20;99.90;;;;;;4446662;28;656627;-72
2023/03/18 09:19:16;;;;;;;10.70;5.40;;;11.70;99.90;;;;;;4418078;28;658473;-72
2023/03/18 09:22:04;;;;;;;11.73;5.33;;;11.90;99.90;;;;;;4438080;28;657612;-72
2023/03/18 09:24:51;;;;;;;13.47;5.53;;;12.20;99.90;;;;;;4416073;28;657734;-71
2023/03/18 09:27:41;;;;;;;15.37;6.47;;;12.60;99.90;;;;;;4438980;28;658912;-71
2023/03/18 09:30:29;;;;;;;15.43;5.70;;;12.90;99.90;;;;;;4404310;28;657889;-72
2023/03/18 09:33:16;;;;;;;13.43;5.97;;;13.20;99.90;;;;;;4409821;28;659223;-72
2023/03/18 09:36:04;;;;;;;14.30;5.70;;;13.40;99.90;;;;;;4441567;28;658336;-72
2023/03/18 09:38:51;;;;;;;14.55;5.55;;;13.80;99.90;;;;;;4415507;28;657588;-72
2023/03/18 09:41:43;;;;;;;10.93;5.27;;;13.80;99.90;;;;;;4431685;28;658654;-71
2023/03/18 09:44:33;;;;;;;14.77;5.40;;;14.20;99.90;;;;;;4399343;28;658585;-71
2023/03/18 09:47:28;;;;;;;11.20;5.57;;;14.30;99.90;;;;;;4404323;28;657655;-73
2023/03/18 09:50:21;;;;;;;11.80;5.90;;;14.00;99.90;;;;;;4382721;28;657569;-73
2023/03/18 09:53:15;;;;;;;12.83;6.03;;;14.10;99.90;;;;;;4401760;28;658070;-72
2023/03/18 09:56:03;;;;;;;10.83;4.87;;;14.20;99.90;;;;;;4365555;28;658285;-72
2023/03/18 09:58:53;;;;;;;13.77;5.83;;;14.70;99.90;;;;;;4399011;28;657619;-71
2023/03/18 10:01:42;;;;;;;15.25;5.35;;;14.70;99.90;;;;;;4387608;28;657738;-69
2023/03/18 10:04:33;;;;;;;11.73;5.30;;;14.90;99.90;;;;;;4406741;28;657132;-69
2023/03/18 10:07:23;;;;;;;13.53;6.20;;;15.40;99.90;;;;;;4369444;28;657804;-69
2023/03/18 10:10:12;;;;;;;13.07;6.30;;;15.50;99.90;;;;;;4406727;28;658194;-69
2023/03/18 10:13:02;;;;;;;13.17;6.17;;;15.40;99.90;;;;;;4421434;28;657260;-69
2023/03/18 10:15:52;;;;;;;14.13;7.20;;;15.30;99.90;;;;;;4382176;28;657816;-69
2023/03/18 10:18:42;;;;;;;20.67;8.23;;;15.10;99.90;;;;;;4389966;28;657689;-68
2023/03/18 10:21:35;;;;;;;15.87;6.90;;;15.30;99.90;;;;;;4386028;28;657511;-69
2023/03/18 10:24:28;;;;;;;13.00;6.63;;;15.60;99.90;;;;;;4374842;28;658305;-68
2023/03/18 10:27:18;;;;;;;16.73;6.87;;;15.70;99.90;;;;;;4394015;28;657966;-68
2023/03/18 10:30:44;;;;;;;15.90;6.97;;;15.70;99.90;;;;;;4389050;28;658016;-68
2023/03/18 10:33:36;;;;;;;15.53;6.50;;;15.80;99.90;;;;;;4361506;28;659394;-69
2023/03/18 10:36:28;;;;;;;12.50;6.37;;;16.10;99.90;;;;;;4403113;28;658262;-68
2023/03/18 10:39:17;;;;;;;12.67;6.30;;;16.50;99.90;;;;;;4378904;28;658304;-69
2023/03/18 10:42:16;;;;;;;13.27;7.17;;;16.70;99.90;;;;;;4421666;28;658568;-68
2023/03/18 10:45:08;;;;;;;13.63;7.80;;;17.00;99.90;;;;;;4394344;28;657851;-69
2023/03/18 10:47:59;;;;;;;13.97;6.30;;;17.50;99.90;;;;;;4399447;28;657266;-69
2023/03/18 10:50:48;;;;;;;14.27;6.13;;;17.00;99.90;;;;;;4413516;28;657543;-68
2023/03/18 10:53:40;;;;;;;13.90;7.03;;;16.70;99.90;;;;;;4418275;28;657570;-69
2023/03/18 10:56:27;;;;;;;14.37;6.50;;;16.90;99.90;;;;;;4417390;28;658919;-69
2023/03/18 10:59:16;;;;;;;16.07;6.33;;;16.60;99.90;;;;;;4430389;28;658331;-69
2023/03/18 11:02:05;;;;;;;12.23;5.97;;;17.10;99.90;;;;;;4422494;28;658924;-69
2023/03/18 11:04:54;;;;;;;12.57;6.23;;;17.50;99.90;;;;;;4415086;28;659029;-69
2023/03/18 11:07:55;;;;;;;13.63;6.60;;;17.40;99.90;;;;;;4412634;28;657450;-69
2023/03/18 11:10:45;;;;;;;9.97;5.63;;;17.30;99.90;;;;;;4416297;28;657694;-68
2023/03/18 11:13:34;;;;;;;10.47;5.70;;;17.50;99.90;;;;;;4412542;28;657757;-68
2023/03/18 11:16:34;;;;;;;10.23;5.20;;;17.60;99.90;;;;;;4409146;28;657246;-69
2023/03/18 11:19:28;;;;;;;12.27;6.10;;;17.50;99.90;;;;;;4395987;28;658277;-69
2023/03/18 11:22:18;;;;;;;12.57;6.73;;;17.70;99.90;;;;;;4399357;28;657931;-68
2023/03/18 11:25:13;;;;;;;9.87;5.53;;;18.20;99.90;;;;;;4422238;28;657491;-68
2023/03/18 11:28:03;;;;;;;10.53;5.30;;;18.50;99.90;;;;;;4395085;28;656496;-69
2023/03/18 11:30:52;;;;;;;8.97;4.53;;;18.50;99.90;;;;;;4409902;28;657912;-69
2023/03/18 11:33:39;;;;;;;9.57;4.87;;;18.40;99.90;;;;;;4427172;28;656802;-69
2023/03/18 11:36:27;;;;;;;10.60;4.57;;;17.80;99.90;;;;;;4417902;28;657302;-69
2023/03/18 11:39:15;;;;;;;7.40;4.10;;;18.00;99.90;;;;;;4431831;28;658012;-68
2023/03/18 11:42:02;;;;;;;9.63;3.63;;;18.20;99.90;;;;;;4423033;28;658427;-69
2023/03/18 11:44:55;;;;;;;6.67;3.70;;;18.50;99.90;;;;;;4437779;28;656188;-68
2023/03/18 11:47:43;;;;;;;8.83;3.63;;;18.00;99.90;;;;;;4420524;28;658177;-67
2023/03/18 11:50:36;;;;;;;6.53;3.43;;;16.10;99.90;;;;;;4415477;28;657032;-69
2023/03/18 11:53:27;;;;;;;6.53;3.50;;;16.10;99.90;;;;;;4415615;28;657033;-68
2023/03/18 11:56:17;;;;;;;11.00;3.90;;;16.60;99.90;;;;;;4415250;28;656909;-68
2023/03/18 11:59:23;;;;;;;6.23;3.53;;;15.90;99.90;;;;;;4405616;28;658050;-69
2023/03/18 12:02:28;;;;;;;7.03;3.90;;;16.20;99.90;;;;;;4384652;28;657279;-69
2023/03/18 12:05:40;;;;;;;8.80;4.57;;;17.30;99.90;;;;;;4404462;28;657719;-69
2023/03/18 12:08:37;;;;;;;9.63;4.67;;;18.00;99.90;;;;;;4395638;28;657898;-68
2023/03/18 12:11:31;;;;;;;9.02;4.13;;;18.60;99.90;;;;;;4420873;28;656850;-69
2023/03/18 12:14:21;;;;;;;9.33;4.23;;;18.40;99.90;;;;;;4394022;28;657153;-69
2023/03/18 12:17:19;;;;;;;8.60;3.60;;;18.40;99.90;;;;;;4420681;28;657739;-69
2023/03/18 12:20:45;;;;;;;7.57;3.97;;;18.50;99.90;;;;;;4399060;28;657411;-69
2023/03/18 12:23:44;;;;;;;9.73;4.43;;;18.80;99.90;;;;;;4426484;28;656949;-69
2023/03/18 12:26:35;;;;;;;11.20;5.20;;;19.00;99.90;;;;;;4393500;28;657516;-69
2023/03/18 12:29:44;;;;;;;12.17;4.40;;;19.40;99.90;;;;;;4420672;28;658784;-69
2023/03/18 12:32:34;;;;;;;10.97;4.20;;;19.70;99.90;;;;;;4428365;28;657878;-69
2023/03/18 12:35:38;;;;;;;9.23;4.57;;;20.00;99.90;;;;;;4422775;28;657796;-69
2023/03/18 12:38:52;;;;;;;9.13;4.30;;;20.30;99.90;;;;;;4395221;28;657437;-68
2023/03/18 12:41:44;;;;;;;13.00;4.70;;;20.30;99.90;;;;;;4412495;28;656628;-69
2023/03/18 12:44:42;;;;;;;9.00;4.60;;;20.20;99.90;;;;;;4412775;28;657699;-68
2023/03/18 12:47:34;;;;;;;8.53;4.90;;;20.40;99.90;;;;;;4420634;28;656724;-68
2023/03/18 12:50:24;;;;;;;9.57;5.17;;;20.20;99.90;;;;;;4393873;28;656977;-69
2023/03/18 12:53:14;;;;;;;8.90;4.63;;;19.40;99.90;;;;;;4415024;28;656614;-68
2023/03/18 12:56:02;;;;;;;9.77;3.77;;;19.80;99.90;;;;;;4416073;28;656998;-69
2023/03/18 12:58:51;;;;;;;9.10;3.87;;;19.70;99.90;;;;;;4436082;28;656299;-68
2023/03/18 13:01:40;;;;;;;9.63;4.27;;;18.70;99.90;;;;;;4419050;28;656918;-69
2023/03/18 13:04:30;;;;;;;7.60;4.37;;;18.60;99.90;;;;;;4420623;28;657457;-69
2023/03/18 13:07:19;;;;;;;8.83;4.73;;;19.00;99.90;;;;;;4405612;28;657877;-68
2023/03/18 13:10:13;;;;;;;9.17;4.20;;;18.80;99.90;;;;;;4422381;28;657275;-69
2023/03/18 13:13:02;;;;;;;6.43;3.50;;;18.80;99.90;;;;;;4412974;28;656597;-68
2023/03/18 13:15:51;;;;;;;8.60;4.30;;;18.70;99.90;;;;;;4443600;28;656665;-68
2023/03/18 13:18:41;;;;;;;8.77;4.67;;;18.50;99.90;;;;;;4416027;28;657422;-68
2023/03/18 13:21:31;;;;;;;10.13;4.00;;;18.70;99.90;;;;;;4412776;28;656965;-68
2023/03/18 13:24:40;;;;;;;8.30;4.70;;;19.10;99.90;;;;;;4411845;28;658819;-69
2023/03/18 13:27:57;;;;;;;6.80;4.00;;;19.60;99.90;;;;;;4393473;28;657712;-68
2023/03/18 13:30:53;;;;;;;10.13;4.33;;;20.20;99.90;;;;;;4419476;28;656099;-68
2023/03/18 13:33:56;;;;;;;10.43;5.00;;;20.40;99.90;;;;;;4392987;28;658310;-68
2023/03/18 13:37:21;;;;;;;9.90;4.77;;;20.60;99.90;;;;;;4399036;28;658445;-68
2023/03/18 13:40:33;;;;;;;8.03;4.33;;;21.00;99.90;;;;;;4417419;28;657724;-69
2023/03/18 13:43:21;;;;;;;9.67;4.77;;;21.20;99.90;;;;;;4397249;28;657361;-69
2023/03/18 13:46:18;;;;;;;7.80;4.57;;;21.20;99.90;;;;;;4438825;28;657616;-68
2023/03/18 13:49:05;;;;;;;8.60;4.80;;;20.00;99.90;;;;;;4391913;28;657074;-68
2023/03/18 13:51:55;;;;;;;15.77;5.20;;;19.70;99.90;;;;;;4429353;28;657212;-68
2023/03/18 13:54:43;;;;;;;10.60;4.67;;;20.30;99.90;;;;;;4400390;28;658207;-69
2023/03/18 13:57:46;;;;;;;9.00;4.77;;;20.90;99.90;;;;;;4412208;28;658029;-68
2023/03/18 14:00:34;;;;;;;10.33;4.23;;;18.50;99.90;;;;;;4413941;28;656738;-68
2023/03/18 14:03:21;;;;;;;12.33;5.03;;;18.70;99.90;;;;;;4419113;28;657954;-68
2023/03/18 14:06:25;;;;;;;9.67;4.60;;;20.20;99.90;;;;;;4445429;28;658198;-68
2023/03/18 14:09:34;;;;;;;8.50;4.47;;;20.80;99.90;;;;;;4394495;28;658026;-68
2023/03/18 14:12:38;;;;;;;9.43;4.57;;;21.10;99.90;;;;;;4416787;28;656534;-68
2023/03/18 14:15:36;;;;;;;8.17;4.00;;;21.80;99.90;;;;;;4394010;28;657312;-69
2023/03/18 14:18:25;;;;;;;10.83;5.50;;;21.30;99.90;;;;;;4411836;28;657289;-68
2023/03/18 14:21:23;;;;;;;12.97;5.60;;;21.00;99.90;;;;;;4423285;28;658420;-69
2023/03/18 14:24:12;;;;;;;16.83;5.40;;;21.00;99.90;;;;;;4390037;28;657981;-69